createdAt,value
2022-11-24T00:00:12.326Z,51.60
2022-11-24T00:02:46.248Z,51.60
2022-11-24T00:05:20.382Z,51.50
2022-11-24T00:07:54.385Z,51.50
2022-11-24T00:10:29.816Z,51.50
2022-11-24T00:13:03.793Z,51.40
2022-11-24T00:15:37.706Z,51.40
2022-11-24T00:18:11.727Z,51.40
2022-11-24T00:20:52.865Z,51.30
2022-11-24T00:23:27.404Z,51.30
2022-11-24T00:26:11.446Z,51.30
2022-11-24T00:28:46.555Z,51.20
2022-11-24T00:31:23.509Z,51.30
2022-11-24T00:33:59.338Z,51.30
2022-11-24T00:36:35.139Z,51.20
2022-11-24T00:39:12.369Z,51.30
2022-11-24T00:41:47.745Z,51.10
2022-11-24T00:44:21.965Z,51.20
2022-11-24T00:46:55.694Z,51.00
2022-11-24T00:49:29.686Z,52.10
2022-11-24T00:52:03.720Z,52.20
2022-11-24T00:54:37.820Z,52.50
2022-11-24T00:57:13.687Z,53.40
2022-11-24T00:59:51.365Z,52.90
2022-11-24T01:02:25.336Z,52.90
2022-11-24T01:04:59.175Z,52.80
2022-11-24T01:07:32.821Z,52.70
2022-11-24T01:10:07.955Z,52.70
2022-11-24T01:12:43.247Z,52.70
2022-11-24T01:15:17.233Z,52.90
2022-11-24T01:17:51.063Z,53.00
2022-11-24T01:20:25.038Z,53.10
2022-11-24T01:22:58.947Z,53.20
2022-11-24T01:25:32.752Z,53.10
2022-11-24T01:28:07.857Z,53.10
2022-11-24T01:30:41.995Z,53.10
2022-11-24T01:33:15.904Z,53.10
2022-11-24T01:35:49.581Z,53.10
2022-11-24T01:38:23.660Z,53.10
2022-11-24T01:41:03.396Z,53.10
2022-11-24T01:43:38.861Z,53.10
2022-11-24T01:46:19.025Z,53.10
2022-11-24T01:48:59.319Z,53.10
2022-11-24T01:51:37.253Z,53.10
2022-11-24T01:54:17.603Z,53.20
2022-11-24T01:56:55.897Z,53.20
2022-11-24T01:59:31.422Z,53.20
2022-11-24T02:02:05.778Z,53.20
2022-11-24T02:04:40.611Z,53.10
2022-11-24T02:07:15.257Z,53.10
2022-11-24T02:09:53.022Z,53.60
2022-11-24T02:12:28.462Z,53.00
2022-11-24T02:15:04.040Z,53.00
2022-11-24T02:17:38.067Z,53.50
2022-11-24T02:20:13.372Z,53.00
2022-11-24T02:22:55.052Z,53.00
2022-11-24T02:25:35.947Z,53.00
2022-11-24T02:28:15.767Z,53.00
2022-11-24T02:30:50.383Z,53.00
2022-11-24T02:33:25.419Z,53.00
2022-11-24T02:35:59.363Z,53.00
2022-11-24T02:38:34.254Z,53.00
2022-11-24T02:41:11.352Z,53.00
2022-11-24T02:43:53.527Z,53.60
2022-11-24T02:46:27.697Z,53.10
2022-11-24T02:49:01.572Z,53.20
2022-11-24T02:51:35.123Z,53.20
2022-11-24T02:54:09.051Z,53.20
2022-11-24T02:56:42.914Z,53.20
2022-11-24T02:59:17.894Z,53.20
2022-11-24T03:01:52.305Z,53.20
2022-11-24T03:04:26.255Z,53.20
2022-11-24T03:07:00.211Z,53.10
2022-11-24T03:09:34.277Z,53.60
2022-11-24T03:12:09.124Z,53.10
2022-11-24T03:14:44.584Z,53.10
2022-11-24T03:17:18.469Z,53.20
2022-11-24T03:19:52.354Z,53.10
2022-11-24T03:22:26.298Z,53.20
2022-11-24T03:25:00.138Z,53.10
2022-11-24T03:27:33.843Z,53.20
2022-11-24T03:30:10.874Z,53.20
2022-11-24T03:32:44.735Z,53.40
2022-11-24T03:35:18.426Z,53.40
2022-11-24T03:37:52.283Z,53.40
2022-11-24T03:40:26.141Z,53.40
2022-11-24T03:42:59.967Z,53.50
2022-11-24T03:45:50.338Z,53.60
2022-11-24T03:48:24.345Z,53.70
2022-11-24T03:50:58.496Z,53.60
2022-11-24T03:53:33.715Z,53.70
2022-11-24T03:56:08.199Z,53.70
2022-11-24T03:58:42.050Z,53.70
2022-11-24T04:01:17.074Z,53.80
2022-11-24T04:03:51.015Z,53.70
2022-11-24T04:06:24.569Z,53.70
2022-11-24T04:08:58.366Z,53.70
2022-11-24T04:11:49.323Z,53.60
2022-11-24T04:14:23.198Z,53.70
2022-11-24T04:16:58.264Z,53.60
2022-11-24T04:19:32.443Z,53.70
2022-11-24T04:22:06.260Z,53.70
2022-11-24T04:24:39.820Z,53.80
2022-11-24T04:27:13.659Z,53.60
2022-11-24T04:29:47.204Z,53.70
2022-11-24T04:32:22.480Z,53.70
2022-11-24T04:34:56.310Z,53.70
2022-11-24T04:37:30.001Z,53.70
2022-11-24T04:40:03.985Z,53.70
2022-11-24T04:42:37.988Z,53.70
2022-11-24T04:45:12.921Z,53.80
2022-11-24T04:47:48.281Z,53.70
2022-11-24T04:50:22.500Z,53.70
2022-11-24T04:52:56.283Z,53.60
2022-11-24T04:55:30.323Z,53.60
2022-11-24T04:58:04.262Z,53.60
2022-11-24T05:00:38.092Z,53.60
2022-11-24T05:03:13.537Z,53.50
2022-11-24T05:05:47.456Z,53.60
2022-11-24T05:08:21.297Z,53.60
2022-11-24T05:10:54.897Z,53.60
2022-11-24T05:13:28.767Z,53.60
2022-11-24T05:16:02.799Z,53.60
2022-11-24T05:18:39.197Z,53.70
2022-11-24T05:21:13.022Z,53.70
2022-11-24T05:23:46.639Z,53.60
2022-11-24T05:26:20.459Z,53.60
2022-11-24T05:28:54.340Z,53.40
2022-11-24T05:31:28.352Z,53.20
2022-11-24T05:34:03.600Z,53.10
2022-11-24T05:37:03.152Z,53.30
2022-11-24T05:39:38.240Z,53.40
2022-11-24T05:42:29.421Z,53.30
2022-11-24T05:45:03.799Z,53.20
2022-11-24T05:47:37.728Z,53.00
2022-11-24T05:50:15.157Z,52.80
2022-11-24T05:52:49.536Z,52.50
2022-11-24T05:55:23.488Z,52.40
2022-11-24T05:58:01.051Z,52.10
2022-11-24T06:00:35.985Z,51.80
2022-11-24T06:03:11.797Z,51.60
2022-11-24T06:05:49.147Z,51.60
2022-11-24T06:08:25.620Z,51.60
2022-11-24T06:11:17.421Z,51.50
2022-11-24T06:13:51.460Z,51.50
2022-11-24T06:16:27.332Z,51.60
2022-11-24T06:19:01.883Z,51.60
2022-11-24T06:21:37.247Z,51.60
2022-11-24T06:24:11.266Z,51.60
2022-11-24T06:26:45.205Z,51.70
2022-11-24T06:29:19.149Z,51.70
2022-11-24T06:31:53.610Z,51.90
2022-11-24T06:34:27.595Z,52.10
2022-11-24T06:37:02.969Z,52.30
2022-11-24T06:39:37.499Z,52.50
2022-11-24T06:42:11.540Z,52.60
2022-11-24T06:44:45.484Z,52.70
2022-11-24T06:47:19.477Z,53.00
2022-11-24T06:49:53.921Z,52.90
2022-11-24T06:52:29.287Z,52.70
2022-11-24T06:55:03.201Z,52.50
2022-11-24T06:57:37.117Z,52.20
2022-11-24T07:00:12.022Z,52.10
2022-11-24T07:02:46.320Z,51.50
2022-11-24T07:05:20.458Z,51.80
2022-11-24T07:07:56.196Z,51.60
2022-11-24T07:10:30.251Z,51.30
2022-11-24T07:13:04.451Z,48.60
2022-11-24T07:15:38.544Z,46.30
2022-11-24T07:18:12.426Z,45.20
2022-11-24T07:20:46.482Z,45.70
2022-11-24T07:23:21.913Z,45.50
2022-11-24T07:25:55.835Z,45.60
2022-11-24T07:28:30.028Z,45.60
2022-11-24T07:31:08.170Z,45.40
2022-11-24T07:33:42.500Z,45.00
2022-11-24T07:36:16.439Z,45.40
2022-11-24T07:38:51.850Z,45.60
2022-11-24T07:41:25.691Z,46.10
2022-11-24T07:43:59.266Z,45.80
2022-11-24T07:46:33.354Z,47.30
2022-11-24T07:49:07.376Z,46.10
2022-11-24T07:51:41.403Z,45.90
2022-11-24T07:54:16.922Z,45.90
2022-11-24T07:56:51.026Z,45.70
2022-11-24T07:59:25.106Z,45.30
2022-11-24T08:02:00.101Z,45.60
2022-11-24T08:04:34.424Z,45.80
2022-11-24T08:07:08.573Z,46.00
2022-11-24T08:09:43.979Z,45.80
2022-11-24T08:12:21.664Z,45.60
2022-11-24T08:14:55.540Z,45.80
2022-11-24T08:17:30.156Z,46.00
2022-11-24T08:20:06.159Z,46.10
2022-11-24T08:22:40.089Z,45.90
2022-11-24T08:25:15.503Z,45.40
2022-11-24T08:27:49.362Z,45.60
2022-11-24T08:30:23.096Z,45.30
2022-11-24T08:32:57.255Z,45.80
2022-11-24T08:35:31.408Z,45.60
2022-11-24T08:38:05.374Z,45.50
2022-11-24T08:40:40.760Z,45.20
2022-11-24T08:43:14.643Z,44.60
2022-11-24T08:45:48.216Z,44.60
2022-11-24T08:48:22.178Z,44.60
2022-11-24T08:50:56.324Z,44.60
2022-11-24T08:53:30.250Z,44.60
2022-11-24T08:56:06.343Z,44.60
2022-11-24T08:58:41.318Z,44.30
2022-11-24T09:01:16.811Z,44.40
2022-11-24T09:03:51.704Z,44.40
2022-11-24T09:06:27.995Z,44.30
2022-11-24T09:09:02.173Z,43.90
2022-11-24T09:11:37.475Z,44.00
2022-11-24T09:14:11.328Z,44.20
2022-11-24T09:16:45.336Z,44.50
2022-11-24T09:19:19.252Z,44.00
2022-11-24T09:21:53.263Z,43.90
2022-11-24T09:24:27.884Z,43.70
2022-11-24T09:27:03.302Z,43.80
2022-11-24T09:29:37.194Z,43.50
2022-11-24T09:32:11.353Z,43.60
2022-11-24T09:34:46.375Z,43.80
2022-11-24T09:37:20.816Z,44.30
2022-11-24T09:39:54.771Z,36.30
2022-11-24T09:42:40.176Z,32.30
2022-11-24T09:45:42.032Z,31.40
2022-11-24T09:48:27.472Z,33.10
2022-11-24T09:51:05.090Z,32.80
2022-11-24T09:53:44.806Z,33.30
2022-11-24T09:56:23.964Z,34.20
2022-11-24T09:59:04.069Z,34.00
2022-11-24T10:01:42.228Z,34.00
2022-11-24T10:04:19.839Z,34.40
2022-11-24T10:07:01.088Z,34.60
2022-11-24T10:09:46.920Z,34.80
2022-11-24T10:12:43.563Z,35.10
2022-11-24T10:15:35.007Z,35.20
2022-11-24T10:18:24.276Z,36.00
2022-11-24T10:21:11.616Z,36.50
2022-11-24T10:24:06.658Z,36.90
2022-11-24T10:26:42.480Z,37.60
2022-11-24T10:29:22.577Z,36.70
2022-11-24T10:31:59.232Z,36.90
2022-11-24T10:34:37.101Z,37.20
2022-11-24T10:37:18.448Z,37.10
2022-11-24T10:40:00.789Z,37.00
2022-11-24T10:42:37.094Z,36.50
2022-11-24T10:45:14.335Z,36.30
2022-11-24T10:47:50.695Z,36.00
2022-11-24T10:50:26.089Z,36.50
2022-11-24T10:53:12.480Z,36.20
2022-11-24T10:55:59.887Z,37.10
2022-11-24T10:58:37.965Z,36.60
2022-11-24T11:01:28.004Z,36.30
2022-11-24T11:04:03.612Z,37.50
2022-11-24T11:06:38.235Z,36.30
2022-11-24T11:09:20.617Z,36.20
2022-11-24T11:11:55.546Z,36.90
2022-11-24T11:14:35.810Z,35.70
2022-11-24T11:17:32.959Z,36.40
2022-11-24T11:20:19.374Z,38.10
2022-11-24T11:22:53.534Z,37.00
2022-11-24T11:25:32.393Z,36.70
2022-11-24T11:28:26.481Z,36.80
2022-11-24T11:31:19.736Z,38.50
2022-11-24T11:34:06.143Z,37.60
2022-11-24T11:36:46.715Z,38.00
2022-11-24T11:39:33.442Z,37.60
2022-11-24T11:42:45.168Z,37.30
2022-11-24T11:45:17.695Z,37.50
2022-11-24T11:47:55.504Z,37.70
2022-11-24T11:51:14.798Z,37.90
2022-11-24T11:53:45.902Z,38.00
2022-11-24T11:56:26.436Z,38.30
2022-11-24T11:59:30.100Z,38.40
2022-11-24T12:02:31.537Z,38.60
2022-11-24T12:05:17.204Z,38.60
2022-11-24T12:08:09.772Z,38.80
2022-11-24T12:10:51.798Z,38.80
2022-11-24T12:14:06.285Z,39.20
2022-11-24T12:16:49.238Z,39.20
2022-11-24T12:20:00.169Z,39.20
2022-11-24T12:22:45.273Z,39.30
2022-11-24T12:25:27.333Z,39.20
2022-11-24T12:28:17.887Z,39.40
2022-11-24T12:31:04.857Z,39.40
2022-11-24T12:34:07.894Z,39.50
2022-11-24T12:36:53.118Z,39.50
2022-11-24T12:39:35.152Z,39.60
2022-11-24T12:42:14.660Z,39.70
2022-11-24T12:45:06.418Z,39.70
2022-11-24T12:47:51.820Z,39.70
2022-11-24T12:50:29.420Z,39.80
2022-11-24T12:53:07.536Z,39.80
2022-11-24T12:55:42.730Z,39.80
2022-11-24T12:58:22.967Z,39.90
2022-11-24T13:01:16.124Z,39.90
2022-11-24T13:04:05.074Z,40.10
2022-11-24T13:06:49.609Z,40.40
2022-11-24T13:09:24.207Z,40.20
2022-11-24T13:12:10.245Z,40.20
2022-11-24T13:14:46.560Z,40.20
2022-11-24T13:17:40.597Z,40.40
2022-11-24T13:20:27.908Z,40.50
2022-11-24T13:23:04.343Z,40.70
2022-11-24T13:25:38.567Z,41.00
2022-11-24T13:29:03.258Z,41.00
2022-11-24T13:31:43.312Z,41.60
2022-11-24T13:34:55.306Z,41.20
2022-11-24T13:37:51.740Z,41.80
2022-11-24T13:41:06.234Z,41.90
2022-11-24T13:43:39.098Z,41.80
2022-11-24T13:46:13.066Z,41.40
2022-11-24T13:49:02.522Z,41.30
2022-11-24T13:51:36.575Z,41.70
2022-11-24T13:54:12.490Z,41.10
2022-11-24T13:56:46.525Z,41.00
2022-11-24T13:59:32.131Z,41.00
2022-11-24T14:02:23.148Z,41.10
2022-11-24T14:05:03.284Z,41.30
2022-11-24T14:07:37.262Z,41.00
2022-11-24T14:10:21.423Z,41.50
2022-11-24T14:13:09.895Z,40.90
2022-11-24T14:15:43.860Z,41.10
2022-11-24T14:18:19.242Z,40.90
2022-11-24T14:20:53.105Z,40.80
2022-11-24T14:23:26.713Z,40.90
2022-11-24T14:26:02.165Z,41.20
2022-11-24T14:28:36.036Z,41.00
2022-11-24T14:31:11.123Z,41.00
2022-11-24T14:33:45.217Z,41.00
2022-11-24T14:36:20.000Z,41.20
2022-11-24T14:38:54.217Z,41.00
2022-11-24T14:41:29.818Z,41.10
2022-11-24T14:44:20.476Z,40.90
2022-11-24T14:47:04.894Z,41.00
2022-11-24T14:49:43.036Z,41.00
2022-11-24T14:52:19.480Z,41.10
2022-11-24T14:54:55.557Z,41.20
2022-11-24T14:57:35.205Z,41.50
2022-11-24T15:00:19.561Z,41.70
2022-11-24T15:02:56.305Z,41.80
2022-11-24T15:05:53.161Z,41.80
2022-11-24T15:08:29.379Z,41.90
2022-11-24T15:11:06.521Z,41.70
2022-11-24T15:13:52.664Z,41.70
2022-11-24T15:16:31.770Z,41.60
2022-11-24T15:19:08.210Z,41.50
2022-11-24T15:21:42.386Z,41.60
2022-11-24T15:24:18.775Z,41.60
2022-11-24T15:27:00.685Z,41.50
2022-11-24T15:29:36.653Z,41.50
2022-11-24T15:32:15.300Z,41.70
2022-11-24T15:34:49.286Z,41.70
2022-11-24T15:37:23.259Z,41.20
2022-11-24T15:39:57.421Z,41.10
2022-11-24T15:42:31.463Z,41.20
2022-11-24T15:45:07.489Z,40.90
2022-11-24T15:47:41.455Z,39.60
2022-11-24T15:50:16.284Z,38.80
2022-11-24T15:52:50.810Z,39.40
2022-11-24T15:55:24.960Z,39.60
2022-11-24T15:57:59.002Z,39.40
2022-11-24T16:00:34.375Z,39.40
2022-11-24T16:03:44.480Z,39.70
2022-11-24T16:06:02.724Z,40.10
2022-11-24T16:08:36.752Z,40.20
2022-11-24T16:11:10.877Z,40.30
2022-11-24T16:13:51.551Z,40.70
2022-11-24T16:16:28.354Z,40.80
2022-11-24T16:19:02.385Z,40.90
2022-11-24T16:21:36.658Z,41.00
2022-11-24T16:24:10.932Z,41.30
2022-11-24T16:26:44.990Z,41.40
2022-11-24T16:29:21.070Z,41.60
2022-11-24T16:31:57.795Z,41.60
2022-11-24T16:34:32.240Z,41.80
2022-11-24T16:37:06.726Z,42.10
2022-11-24T16:39:44.492Z,42.20
2022-11-24T16:42:22.646Z,42.40
2022-11-24T16:44:56.673Z,42.50
2022-11-24T16:47:32.208Z,42.60
2022-11-24T16:50:07.424Z,42.90
2022-11-24T16:52:41.658Z,43.10
2022-11-24T16:55:15.697Z,43.20
2022-11-24T16:57:49.674Z,43.40
2022-11-24T17:00:24.193Z,43.80
2022-11-24T17:02:59.794Z,43.90
2022-11-24T17:05:33.744Z,43.80
2022-11-24T17:08:07.848Z,43.80
2022-11-24T17:10:41.721Z,43.70
2022-11-24T17:13:15.703Z,43.80
2022-11-24T17:15:54.156Z,43.90
2022-11-24T17:18:29.910Z,43.80
2022-11-24T17:21:09.493Z,44.00
2022-11-24T17:23:43.993Z,44.00
2022-11-24T17:26:19.151Z,44.30
2022-11-24T17:28:53.760Z,44.60
2022-11-24T17:31:29.804Z,44.90
2022-11-24T17:34:07.472Z,45.40
2022-11-24T17:36:44.805Z,45.70
2022-11-24T17:39:24.504Z,45.80
2022-11-24T17:41:58.968Z,45.80
2022-11-24T17:44:33.482Z,45.90
2022-11-24T17:47:07.889Z,45.90
2022-11-24T17:49:43.657Z,46.30
2022-11-24T17:52:18.355Z,46.70
2022-11-24T17:54:52.292Z,46.80
2022-11-24T17:57:26.580Z,46.90
2022-11-24T18:00:00.475Z,47.00
2022-11-24T18:02:34.640Z,47.10
2022-11-24T18:05:10.765Z,47.30
2022-11-24T18:07:45.041Z,47.60
2022-11-24T18:10:20.037Z,47.50
2022-11-24T18:12:54.369Z,47.70
2022-11-24T18:15:28.491Z,47.60
2022-11-24T18:18:02.504Z,47.50
2022-11-24T18:20:37.950Z,47.20
2022-11-24T18:23:12.171Z,46.60
2022-11-24T18:25:53.140Z,46.10
2022-11-24T18:28:27.790Z,45.50
2022-11-24T18:31:05.969Z,45.00
2022-11-24T18:33:40.911Z,44.90
2022-11-24T18:36:17.916Z,44.90
2022-11-24T18:38:52.054Z,44.70
2022-11-24T18:41:26.060Z,44.60
2022-11-24T18:44:02.469Z,44.50
2022-11-24T18:46:36.668Z,44.50
2022-11-24T18:49:10.821Z,44.50
2022-11-24T18:51:46.268Z,44.60
2022-11-24T18:54:20.698Z,44.70
2022-11-24T18:56:57.783Z,44.90
2022-11-24T18:59:36.968Z,45.20
2022-11-24T19:02:12.416Z,45.30
2022-11-24T19:04:46.523Z,45.50
2022-11-24T19:07:22.096Z,45.50
2022-11-24T19:09:57.812Z,45.90
2022-11-24T19:12:31.885Z,46.10
2022-11-24T19:15:07.080Z,46.20
2022-11-24T19:17:41.098Z,46.30
2022-11-24T19:20:15.663Z,46.40
2022-11-24T19:22:52.126Z,46.50
2022-11-24T19:25:26.564Z,46.80
2022-11-24T19:28:00.843Z,46.80
2022-11-24T19:30:35.129Z,47.00
2022-11-24T19:33:10.391Z,47.10
2022-11-24T19:35:44.995Z,47.40
2022-11-24T19:38:23.372Z,47.50
2022-11-24T19:41:05.389Z,47.20
2022-11-24T19:43:39.835Z,46.80
2022-11-24T19:46:16.100Z,46.40
2022-11-24T19:48:54.403Z,46.20
2022-11-24T19:51:31.445Z,45.70
2022-11-24T19:54:09.225Z,45.60
2022-11-24T19:56:43.292Z,45.50
2022-11-24T19:59:17.563Z,45.60
2022-11-24T20:01:51.867Z,45.90
2022-11-24T20:04:25.985Z,46.20
2022-11-24T20:07:00.400Z,46.30
2022-11-24T20:09:35.905Z,46.40
2022-11-24T20:12:10.113Z,46.50
2022-11-24T20:14:44.218Z,46.70
2022-11-24T20:17:20.349Z,46.90
2022-11-24T20:19:54.679Z,47.00
2022-11-24T20:22:28.789Z,47.20
2022-11-24T20:25:04.292Z,47.30
2022-11-24T20:27:38.349Z,47.40
2022-11-24T20:30:13.151Z,47.60
2022-11-24T20:32:47.272Z,47.70
2022-11-24T20:35:21.636Z,47.80
2022-11-24T20:37:57.473Z,47.80
2022-11-24T20:40:32.853Z,47.80
2022-11-24T20:43:06.828Z,47.90
2022-11-24T20:45:40.822Z,47.90
2022-11-24T20:48:14.912Z,48.00
2022-11-24T20:50:51.479Z,48.20
2022-11-24T20:53:25.858Z,48.50
2022-11-24T20:56:06.742Z,49.70
2022-11-24T20:58:42.516Z,49.90
2022-11-24T21:01:18.652Z,50.00
2022-11-24T21:03:55.383Z,49.90
2022-11-24T21:06:30.839Z,50.30
2022-11-24T21:09:06.098Z,50.30
2022-11-24T21:11:41.934Z,50.90
2022-11-24T21:14:16.328Z,50.20
2022-11-24T21:16:50.378Z,50.20
2022-11-24T21:19:24.480Z,50.10
2022-11-24T21:21:58.388Z,50.20
2022-11-24T21:24:32.646Z,50.30
2022-11-24T21:27:08.264Z,50.40
2022-11-24T21:29:42.348Z,50.30
2022-11-24T21:32:16.340Z,50.30
2022-11-24T21:34:50.286Z,50.20
2022-11-24T21:37:24.280Z,49.90
2022-11-24T21:39:58.284Z,49.80
2022-11-24T21:42:33.690Z,49.90
2022-11-24T21:45:10.906Z,50.00
2022-11-24T21:47:46.665Z,50.10
2022-11-24T21:50:20.805Z,50.00
2022-11-24T21:52:57.111Z,50.10
2022-11-24T21:55:34.533Z,50.10
2022-11-24T21:58:10.185Z,50.10
2022-11-24T22:00:44.256Z,50.20
2022-11-24T22:03:18.978Z,50.10
2022-11-24T22:05:57.758Z,50.20
2022-11-24T22:08:32.838Z,50.20
2022-11-24T22:11:08.536Z,50.30
2022-11-24T22:13:44.728Z,50.60
2022-11-24T22:16:20.250Z,50.70
2022-11-24T22:18:54.541Z,50.80
2022-11-24T22:21:33.746Z,50.80
2022-11-24T22:24:10.672Z,50.80
2022-11-24T22:26:44.677Z,50.70
2022-11-24T22:29:20.639Z,50.70
2022-11-24T22:31:55.080Z,50.70
2022-11-24T22:34:30.338Z,50.70
2022-11-24T22:37:04.254Z,50.60
2022-11-24T22:39:38.380Z,50.70
2022-11-24T22:42:12.335Z,50.70
2022-11-24T22:44:47.910Z,50.70
2022-11-24T22:47:21.999Z,50.70
2022-11-24T22:49:56.067Z,50.70
2022-11-24T22:52:29.954Z,50.70
2022-11-24T22:55:04.294Z,50.70
2022-11-24T22:57:38.292Z,50.70
2022-11-24T23:00:15.638Z,50.70
2022-11-24T23:02:49.623Z,50.90
2022-11-24T23:05:23.643Z,50.70
2022-11-24T23:07:57.724Z,50.70
2022-11-24T23:10:31.803Z,51.40
2022-11-24T23:13:05.565Z,50.60
2022-11-24T23:15:40.975Z,50.80
2022-11-24T23:18:14.912Z,50.60
2022-11-24T23:20:48.832Z,50.70
2022-11-24T23:23:23.082Z,50.80
2022-11-24T23:25:56.994Z,50.70
2022-11-24T23:28:31.062Z,50.50
2022-11-24T23:31:08.462Z,50.40
2022-11-24T23:33:42.661Z,50.30
2022-11-24T23:36:18.154Z,50.20
2022-11-24T23:38:52.350Z,50.20
2022-11-24T23:41:27.273Z,50.10
2022-11-24T23:44:01.266Z,50.10
2022-11-24T23:46:36.849Z,50.00
2022-11-24T23:49:10.781Z,50.00
2022-11-24T23:51:44.678Z,50.00
2022-11-24T23:54:18.556Z,49.90
2022-11-24T23:56:52.486Z,49.80
2022-11-24T23:59:27.052Z,49.80
